createdAt,value
2022-10-04T00:18:38.173Z,1025.1
2022-10-04T00:37:52.293Z,1025.07
2022-10-04T00:47:29.066Z,1025.16
2022-10-04T00:57:05.649Z,1025.21
2022-10-04T01:06:41.990Z,1025.29
2022-10-04T01:16:18.569Z,1025.33
2022-10-04T01:25:55.057Z,1025.38
2022-10-04T01:35:31.308Z,1025.29
2022-10-04T01:45:08.446Z,1025.2
2022-10-04T01:54:45.545Z,1025.21
2022-10-04T02:04:22.860Z,1025.14
2022-10-04T02:13:58.748Z,1025.13
2022-10-04T02:23:35.332Z,1025.09
2022-10-04T02:33:11.938Z,1025.09
2022-10-04T02:42:48.605Z,1024.93
2022-10-04T02:52:25.025Z,1025.11
2022-10-04T03:02:01.989Z,1024.99
2022-10-04T03:11:39.341Z,1024.96
2022-10-04T03:30:53.838Z,1024.79
2022-10-04T03:50:07.726Z,1024.78
2022-10-04T03:59:45.050Z,1024.89
2022-10-04T04:09:22.105Z,1024.62
2022-10-04T04:18:59.329Z,1024.98
2022-10-04T04:28:36.823Z,1024.67
2022-10-04T04:38:13.848Z,1024.8
2022-10-04T04:47:50.748Z,1024.76
2022-10-04T05:07:05.171Z,1024.57
2022-10-04T05:16:42.421Z,1024.46
2022-10-04T05:26:19.958Z,1024.42
2022-10-04T05:35:57.571Z,1024.62
2022-10-04T05:45:34.795Z,1024.76
2022-10-04T05:55:12.246Z,1024.71
2022-10-04T06:04:50.156Z,1024.69
2022-10-04T06:14:27.243Z,1024.6
2022-10-04T06:24:04.175Z,1024.68
2022-10-04T06:33:41.480Z,1024.72
2022-10-04T06:43:18.959Z,1024.81
2022-10-04T06:52:56.553Z,1024.75
2022-10-04T07:02:34.375Z,1024.75
2022-10-04T07:12:11.580Z,1024.86
2022-10-04T07:21:49.733Z,1024.88
2022-10-04T07:31:27.412Z,1024.76
2022-10-04T07:41:05.224Z,1024.84
2022-10-04T08:00:20.919Z,1025.08
2022-10-04T08:19:36.712Z,1024.9
2022-10-04T08:29:14.216Z,1024.93
2022-10-04T08:38:51.775Z,1024.87
2022-10-04T08:48:29.360Z,1024.76
2022-10-04T08:58:08.334Z,1024.79
2022-10-04T09:17:24.956Z,1024.76
2022-10-04T09:27:03.025Z,1024.66
2022-10-04T09:36:42.377Z,1024.57
2022-10-04T09:46:19.599Z,1024.56
2022-10-04T09:55:54.938Z,1024.45
2022-10-04T10:05:31.414Z,1024.44
2022-10-04T10:15:08.740Z,1024.31
2022-10-04T10:35:00.243Z,1023.95
2022-10-04T10:44:44.091Z,1023.92
2022-10-04T10:54:32.712Z,1023.79
2022-10-04T11:04:13.300Z,1023.68
2022-10-04T11:13:53.148Z,1023.51
2022-10-04T11:23:27.603Z,1023.47
2022-10-04T11:33:09.582Z,1023.34
2022-10-04T11:52:22.995Z,1023.09
2022-10-04T12:02:02.166Z,1022.92
2022-10-04T12:11:38.907Z,1022.85
2022-10-04T12:21:17.960Z,1022.72
2022-10-04T12:30:47.671Z,1022.61
2022-10-04T12:40:37.381Z,1022.54
2022-10-04T12:50:15.786Z,1022.5
2022-10-04T13:09:32.918Z,1022.4
2022-10-04T13:19:12.484Z,1022.32
2022-10-04T13:28:49.754Z,1022.21
2022-10-04T13:38:28.841Z,1022.18
2022-10-04T13:48:10.605Z,1022.14
2022-10-04T14:07:21.704Z,1021.96
2022-10-04T14:26:38.805Z,1021.68
2022-10-04T14:36:21.619Z,1021.67
2022-10-04T14:45:52.189Z,1021.51
2022-10-04T14:55:26.506Z,1021.52
2022-10-04T15:05:03.014Z,1021.49
2022-10-04T15:14:25.001Z,1021.57
2022-10-04T15:24:00.240Z,1021.63
2022-10-04T15:33:22.974Z,1021.82
2022-10-04T15:42:51.694Z,1021.95
2022-10-04T15:52:25.411Z,1022.04
2022-10-04T16:11:35.437Z,1022.13
2022-10-04T16:21:11.277Z,1022.1
2022-10-04T16:30:47.154Z,1022.16
2022-10-04T16:40:23.080Z,1022.24
2022-10-04T16:49:58.613Z,1022.26
2022-10-04T16:59:34.596Z,1022.43
2022-10-04T17:09:10.926Z,1022.51
2022-10-04T17:18:46.745Z,1022.72
2022-10-04T17:28:23.364Z,1022.76
2022-10-04T17:37:59.635Z,1022.78
2022-10-04T17:47:35.628Z,1023
2022-10-04T17:57:12.485Z,1022.91
2022-10-04T18:06:49.469Z,1022.92
2022-10-04T18:16:25.730Z,1022.8
2022-10-04T18:35:39.064Z,1022.72
2022-10-04T18:54:52.678Z,1022.87
2022-10-04T19:04:29.621Z,1022.93
2022-10-04T19:14:08.508Z,1022.96
2022-10-04T19:33:19.290Z,1023.32
2022-10-04T19:52:32.549Z,1023.38
2022-10-04T20:11:46.709Z,1023.46
2022-10-04T20:21:26.352Z,1023.53
2022-10-04T20:31:00.545Z,1023.44
2022-10-04T20:40:37.288Z,1023.46
2022-10-04T20:50:14.330Z,1023.48
2022-10-04T21:09:28.717Z,1023.53
2022-10-04T21:28:42.795Z,1023.54
2022-10-04T21:38:19.914Z,1023.57
2022-10-04T21:47:56.910Z,1023.41
2022-10-04T21:57:35.728Z,1023.11
2022-10-04T22:07:11.422Z,1023.09
2022-10-04T22:16:49.123Z,1022.9
2022-10-04T22:26:25.706Z,1022.86
2022-10-04T22:36:03.132Z,1022.64
2022-10-04T22:45:40.260Z,1022.57
2022-10-04T22:55:16.916Z,1022.39
2022-10-04T23:04:54.082Z,1022.25
2022-10-04T23:14:30.557Z,1022.22
2022-10-04T23:24:07.052Z,1022.02
2022-10-04T23:33:44.097Z,1022.01
2022-10-04T23:43:20.730Z,1021.94
2022-10-04T23:52:57.872Z,1021.94
